createdAt,value
2022-11-07T00:00:20.846Z,100.00
2022-11-07T00:02:47.280Z,100.00
2022-11-07T00:05:13.848Z,100.00
2022-11-07T00:07:40.254Z,100.00
2022-11-07T00:10:07.015Z,100.00
2022-11-07T00:12:36.450Z,100.00
2022-11-07T00:15:04.993Z,100.00
2022-11-07T00:17:31.570Z,100.00
2022-11-07T00:19:58.225Z,100.00
2022-11-07T00:22:24.638Z,99.82
2022-11-07T00:24:51.066Z,100.00
2022-11-07T00:27:17.692Z,100.00
2022-11-07T00:29:44.149Z,100.00
2022-11-07T00:32:10.565Z,100.00
2022-11-07T00:34:36.955Z,100.00
2022-11-07T00:37:03.424Z,100.00
2022-11-07T00:39:29.914Z,100.00
2022-11-07T00:41:56.372Z,100.00
2022-11-07T00:44:22.850Z,100.00
2022-11-07T00:46:49.375Z,99.62
2022-11-07T00:49:15.769Z,100.00
2022-11-07T00:51:42.583Z,99.79
2022-11-07T00:54:09.022Z,100.00
2022-11-07T00:56:35.522Z,100.00
2022-11-07T00:59:01.929Z,100.00
2022-11-07T01:01:31.996Z,99.91
2022-11-07T01:04:17.643Z,100.00
2022-11-07T01:06:46.119Z,100.00
2022-11-07T01:09:16.653Z,100.00
2022-11-07T01:11:43.947Z,100.00
2022-11-07T01:14:11.778Z,100.00
2022-11-07T01:16:38.884Z,99.94
2022-11-07T01:19:06.247Z,99.87
2022-11-07T01:21:32.695Z,100.00
2022-11-07T01:24:00.226Z,100.00
2022-11-07T01:26:27.025Z,100.00
2022-11-07T01:28:53.444Z,100.00
2022-11-07T01:31:20.104Z,100.00
2022-11-07T01:33:46.920Z,100.00
2022-11-07T01:36:16.369Z,100.00
2022-11-07T01:38:46.010Z,100.00
2022-11-07T01:41:21.145Z,99.58
2022-11-07T01:44:08.976Z,100.00
2022-11-07T01:46:41.106Z,100.00
2022-11-07T01:49:32.348Z,99.59
2022-11-07T01:52:04.199Z,100.00
2022-11-07T01:54:35.587Z,100.00
2022-11-07T01:57:09.287Z,100.00
2022-11-07T01:59:37.543Z,100.00
2022-11-07T02:02:04.546Z,100.00
2022-11-07T02:04:31.854Z,100.00
2022-11-07T02:07:34.062Z,100.00
2022-11-07T02:10:01.551Z,100.00
2022-11-07T02:12:29.028Z,100.00
2022-11-07T02:14:56.583Z,100.00
2022-11-07T02:17:23.339Z,100.00
2022-11-07T02:19:55.939Z,100.00
2022-11-07T02:22:28.368Z,100.00
2022-11-07T02:25:00.096Z,100.00
2022-11-07T02:27:31.222Z,100.00
2022-11-07T02:30:02.682Z,100.00
2022-11-07T02:32:29.329Z,100.00
2022-11-07T02:35:00.176Z,100.00
2022-11-07T02:37:37.405Z,100.00
2022-11-07T02:40:08.052Z,100.00
2022-11-07T02:42:44.151Z,100.00
2022-11-07T02:45:17.414Z,100.00
2022-11-07T02:47:43.839Z,100.00
2022-11-07T02:50:12.641Z,100.00
2022-11-07T02:52:39.060Z,100.00
2022-11-07T02:55:06.774Z,100.00
2022-11-07T02:57:33.490Z,100.00
2022-11-07T02:59:59.944Z,100.00
2022-11-07T03:02:26.574Z,100.00
2022-11-07T03:04:53.289Z,100.00
2022-11-07T03:07:19.803Z,100.00
2022-11-07T03:09:46.257Z,100.00
2022-11-07T03:12:12.708Z,100.00
2022-11-07T03:14:39.235Z,100.00
2022-11-07T03:17:05.740Z,100.00
2022-11-07T03:19:32.174Z,100.00
2022-11-07T03:21:58.565Z,100.00
2022-11-07T03:24:24.993Z,100.00
2022-11-07T03:26:51.489Z,100.00
2022-11-07T03:29:17.903Z,100.00
2022-11-07T03:31:44.294Z,100.00
2022-11-07T03:34:10.785Z,100.00
2022-11-07T03:36:37.195Z,100.00
2022-11-07T03:39:03.718Z,100.00
2022-11-07T03:41:30.111Z,100.00
2022-11-07T03:43:56.538Z,100.00
2022-11-07T03:46:22.956Z,100.00
2022-11-07T03:48:49.374Z,100.00
2022-11-07T03:51:15.773Z,100.00
2022-11-07T03:53:42.216Z,100.00
2022-11-07T03:56:10.695Z,100.00
2022-11-07T03:58:37.744Z,100.00
2022-11-07T04:01:05.096Z,100.00
2022-11-07T04:03:32.491Z,100.00
2022-11-07T04:05:59.355Z,100.00
2022-11-07T04:08:25.850Z,100.00
2022-11-07T04:10:52.324Z,100.00
2022-11-07T04:13:37.376Z,100.00
2022-11-07T04:16:22.732Z,100.00
2022-11-07T04:18:49.213Z,100.00
2022-11-07T04:21:15.603Z,100.00
2022-11-07T04:23:42.024Z,100.00
2022-11-07T04:26:26.756Z,100.00
2022-11-07T04:28:53.179Z,100.00
2022-11-07T04:31:19.615Z,100.00
2022-11-07T04:33:46.059Z,100.00
2022-11-07T04:36:12.518Z,100.00
2022-11-07T04:38:38.973Z,100.00
2022-11-07T04:41:05.847Z,100.00
2022-11-07T04:43:32.409Z,100.00
2022-11-07T04:45:58.868Z,100.00
2022-11-07T04:48:25.262Z,100.00
2022-11-07T04:50:51.768Z,100.00
2022-11-07T04:53:18.887Z,100.00
2022-11-07T04:55:45.306Z,100.00
2022-11-07T04:58:11.700Z,100.00
2022-11-07T05:00:38.192Z,100.00
2022-11-07T05:03:04.703Z,100.00
2022-11-07T05:05:31.564Z,100.00
2022-11-07T05:07:57.955Z,100.00
2022-11-07T05:10:29.094Z,100.00
2022-11-07T05:12:56.461Z,100.00
2022-11-07T05:15:23.591Z,100.00
2022-11-07T05:17:50.052Z,100.00
2022-11-07T05:20:36.879Z,100.00
2022-11-07T05:23:18.477Z,100.00
2022-11-07T05:25:48.188Z,100.00
2022-11-07T05:28:35.175Z,100.00
2022-11-07T05:31:06.246Z,100.00
2022-11-07T05:33:32.862Z,100.00
2022-11-07T05:36:18.794Z,100.00
2022-11-07T05:38:47.737Z,100.00
2022-11-07T05:41:15.367Z,100.00
2022-11-07T05:43:42.087Z,100.00
2022-11-07T05:46:09.159Z,100.00
2022-11-07T05:48:36.547Z,100.00
2022-11-07T05:51:04.445Z,100.00
2022-11-07T05:53:31.280Z,100.00
2022-11-07T05:55:57.871Z,100.00
2022-11-07T05:58:24.323Z,100.00
2022-11-07T06:00:50.743Z,100.00
2022-11-07T06:03:20.181Z,100.00
2022-11-07T06:05:47.595Z,100.00
2022-11-07T06:08:14.568Z,100.00
2022-11-07T06:10:42.428Z,100.00
2022-11-07T06:13:13.136Z,100.00
2022-11-07T06:15:40.890Z,100.00
2022-11-07T06:18:12.439Z,100.00
2022-11-07T06:20:39.218Z,100.00
2022-11-07T06:23:06.637Z,100.00
2022-11-07T06:25:33.640Z,100.00
2022-11-07T06:28:01.834Z,100.00
2022-11-07T06:30:28.920Z,100.00
2022-11-07T06:32:55.420Z,100.00
2022-11-07T06:35:22.428Z,100.00
2022-11-07T06:37:48.867Z,100.00
2022-11-07T06:40:15.327Z,100.00
2022-11-07T06:42:41.732Z,100.00
2022-11-07T06:45:08.686Z,100.00
2022-11-07T06:47:35.087Z,100.00
2022-11-07T06:50:01.514Z,100.00
2022-11-07T06:52:28.424Z,100.00
2022-11-07T06:54:54.941Z,100.00
2022-11-07T06:57:21.413Z,100.00
2022-11-07T06:59:51.773Z,100.00
2022-11-07T07:02:43.819Z,100.00
2022-11-07T07:05:05.554Z,100.00
2022-11-07T07:07:31.992Z,100.00
2022-11-07T07:09:58.378Z,100.00
2022-11-07T07:12:26.418Z,100.00
2022-11-07T07:14:52.814Z,100.00
2022-11-07T07:17:19.287Z,100.00
2022-11-07T07:19:45.728Z,100.00
2022-11-07T07:22:14.943Z,100.00
2022-11-07T07:24:41.322Z,100.00
2022-11-07T07:27:07.716Z,100.00
2022-11-07T07:29:34.135Z,100.00
2022-11-07T07:32:00.545Z,100.00
2022-11-07T07:34:26.958Z,100.00
2022-11-07T07:36:54.198Z,100.00
2022-11-07T07:39:20.599Z,100.00
2022-11-07T07:41:49.280Z,99.92
2022-11-07T07:44:15.662Z,99.89
2022-11-07T07:46:42.143Z,99.85
2022-11-07T07:49:09.092Z,99.23
2022-11-07T07:51:35.942Z,98.32
2022-11-07T07:54:02.340Z,98.83
2022-11-07T07:56:28.798Z,97.82
2022-11-07T07:58:55.829Z,96.81
2022-11-07T08:01:22.373Z,94.99
2022-11-07T08:04:01.167Z,93.14
2022-11-07T08:06:28.064Z,90.73
2022-11-07T08:08:54.496Z,86.25
2022-11-07T08:11:20.917Z,83.95
2022-11-07T08:13:47.307Z,81.92
2022-11-07T08:16:14.747Z,79.72
2022-11-07T08:18:41.153Z,79.27
2022-11-07T08:21:08.595Z,77.55
2022-11-07T08:23:35.840Z,75.79
2022-11-07T08:26:04.751Z,73.33
2022-11-07T08:28:33.839Z,71.42
2022-11-07T08:31:03.176Z,71.66
2022-11-07T08:33:30.810Z,69.11
2022-11-07T08:36:00.480Z,68.63
2022-11-07T08:38:28.519Z,65.56
2022-11-07T08:40:56.101Z,65.67
2022-11-07T08:43:22.578Z,65.11
2022-11-07T08:45:50.422Z,63.77
2022-11-07T08:48:17.457Z,62.41
2022-11-07T08:50:44.203Z,61.58
2022-11-07T08:53:11.704Z,60.20
2022-11-07T08:55:38.245Z,60.89
2022-11-07T08:58:07.240Z,61.67
2022-11-07T09:00:35.627Z,61.20
2022-11-07T09:05:53.225Z,57.95
2022-11-07T09:08:19.691Z,56.80
2022-11-07T09:10:46.166Z,56.21
2022-11-07T09:13:15.160Z,55.39
2022-11-07T09:15:46.162Z,55.81
2022-11-07T09:18:15.943Z,54.07
2022-11-07T09:20:42.363Z,53.54
2022-11-07T09:23:09.173Z,53.33
2022-11-07T09:25:35.580Z,52.74
2022-11-07T09:28:03.248Z,52.27
2022-11-07T09:30:29.671Z,51.51
2022-11-07T09:32:56.810Z,50.27
2022-11-07T09:35:23.320Z,49.78
2022-11-07T09:37:51.055Z,49.49
2022-11-07T09:40:51.216Z,51.33
2022-11-07T09:43:55.190Z,50.73
2022-11-07T09:46:28.287Z,51.19
2022-11-07T09:49:01.303Z,50.17
2022-11-07T09:51:40.743Z,50.54
2022-11-07T09:54:29.097Z,49.99
2022-11-07T09:56:58.535Z,49.92
2022-11-07T09:59:30.336Z,50.59
2022-11-07T10:01:56.808Z,50.26
2022-11-07T10:04:25.716Z,50.00
2022-11-07T10:07:04.043Z,49.47
2022-11-07T10:09:47.984Z,46.80
2022-11-07T10:12:17.095Z,46.26
2022-11-07T10:15:08.718Z,48.55
2022-11-07T10:17:49.440Z,47.38
2022-11-07T10:20:41.112Z,45.29
2022-11-07T10:23:43.045Z,44.35
2022-11-07T10:26:10.467Z,46.68
2022-11-07T10:28:52.933Z,46.60
2022-11-07T10:31:19.798Z,45.24
2022-11-07T10:33:56.809Z,45.97
2022-11-07T10:36:30.779Z,44.82
2022-11-07T10:38:58.015Z,44.49
2022-11-07T10:41:27.418Z,42.33
2022-11-07T10:43:59.108Z,42.34
2022-11-07T10:46:38.477Z,42.27
2022-11-07T10:49:36.239Z,44.89
2022-11-07T10:52:19.448Z,47.03
2022-11-07T10:54:46.976Z,46.32
2022-11-07T10:57:22.236Z,47.24
2022-11-07T10:59:51.756Z,47.69
2022-11-07T11:02:43.921Z,46.90
2022-11-07T11:05:40.558Z,47.43
2022-11-07T11:08:19.357Z,48.96
2022-11-07T11:10:47.282Z,48.86
2022-11-07T11:13:33.167Z,47.97
2022-11-07T11:16:21.188Z,47.63
2022-11-07T11:18:53.233Z,44.42
2022-11-07T11:21:20.279Z,45.76
2022-11-07T11:23:47.734Z,44.58
2022-11-07T11:26:30.591Z,42.87
2022-11-07T11:29:02.297Z,44.22
2022-11-07T11:31:35.029Z,44.62
2022-11-07T11:34:36.569Z,44.25
2022-11-07T11:37:15.942Z,43.90
2022-11-07T11:40:03.916Z,44.71
2022-11-07T11:42:39.453Z,44.37
2022-11-07T11:45:16.717Z,43.01
2022-11-07T11:47:53.833Z,44.45
2022-11-07T11:50:31.754Z,42.28
2022-11-07T11:52:59.457Z,41.46
2022-11-07T11:55:34.231Z,39.87
2022-11-07T11:58:34.931Z,39.02
2022-11-07T12:01:18.346Z,39.14
2022-11-07T12:04:22.744Z,39.37
2022-11-07T12:06:57.600Z,39.71
2022-11-07T12:09:23.912Z,39.33
2022-11-07T12:12:09.705Z,38.77
2022-11-07T12:14:57.686Z,38.04
2022-11-07T12:17:38.006Z,37.95
2022-11-07T12:20:19.999Z,38.01
2022-11-07T12:22:53.914Z,39.42
2022-11-07T12:25:27.655Z,39.62
2022-11-07T12:28:06.409Z,41.04
2022-11-07T12:30:35.765Z,39.00
2022-11-07T12:33:28.068Z,37.76
2022-11-07T12:35:57.172Z,37.17
2022-11-07T12:38:38.682Z,37.39
2022-11-07T12:41:34.619Z,36.60
2022-11-07T12:44:04.813Z,35.42
2022-11-07T12:46:52.923Z,34.83
2022-11-07T12:49:40.856Z,35.70
2022-11-07T12:52:42.807Z,36.53
2022-11-07T12:55:42.015Z,34.58
2022-11-07T12:58:20.325Z,34.57
2022-11-07T13:00:47.850Z,34.64
2022-11-07T13:03:32.944Z,34.12
2022-11-07T13:06:15.344Z,34.68
2022-11-07T13:08:56.327Z,34.95
2022-11-07T13:11:41.071Z,34.67
2022-11-07T13:14:26.643Z,34.76
2022-11-07T13:17:08.386Z,36.33
2022-11-07T13:19:37.879Z,36.83
2022-11-07T13:22:07.575Z,35.94
2022-11-07T13:24:38.726Z,36.13
2022-11-07T13:27:20.702Z,35.52
2022-11-07T13:29:47.131Z,36.20
2022-11-07T13:32:15.517Z,36.82
2022-11-07T13:34:47.960Z,36.56
2022-11-07T13:37:22.470Z,36.46
2022-11-07T13:39:51.460Z,37.18
2022-11-07T13:42:19.229Z,38.10
2022-11-07T13:44:53.326Z,38.01
2022-11-07T13:47:26.243Z,37.76
2022-11-07T13:49:57.988Z,38.15
2022-11-07T13:52:52.410Z,38.55
2022-11-07T13:55:23.502Z,39.03
2022-11-07T13:57:57.949Z,39.67
2022-11-07T14:00:24.916Z,40.60
2022-11-07T14:02:57.720Z,40.95
2022-11-07T14:05:27.250Z,40.75
2022-11-07T14:08:03.127Z,40.87
2022-11-07T14:10:33.848Z,40.89
2022-11-07T14:13:22.203Z,41.70
2022-11-07T14:15:53.916Z,42.85
2022-11-07T14:18:23.077Z,41.96
2022-11-07T14:20:55.350Z,42.35
2022-11-07T14:23:26.160Z,42.75
2022-11-07T14:26:04.700Z,43.07
2022-11-07T14:28:36.751Z,43.54
2022-11-07T14:31:06.766Z,43.62
2022-11-07T14:33:33.920Z,44.54
2022-11-07T14:36:05.762Z,45.30
2022-11-07T14:38:32.328Z,45.68
2022-11-07T14:41:01.844Z,45.24
2022-11-07T14:43:29.347Z,44.52
2022-11-07T14:46:17.388Z,45.13
2022-11-07T14:48:44.980Z,45.42
2022-11-07T14:51:17.723Z,43.90
2022-11-07T14:54:05.912Z,44.60
2022-11-07T14:56:35.739Z,44.01
2022-11-07T14:59:02.472Z,45.78
2022-11-07T15:01:32.454Z,46.91
2022-11-07T15:04:36.396Z,46.52
2022-11-07T15:07:18.004Z,48.26
2022-11-07T15:09:44.445Z,49.59
2022-11-07T15:12:21.902Z,50.46
2022-11-07T15:15:06.770Z,50.96
2022-11-07T15:17:40.224Z,51.65
2022-11-07T15:20:07.347Z,52.91
2022-11-07T15:22:39.020Z,53.97
2022-11-07T15:25:25.089Z,53.79
2022-11-07T15:27:51.550Z,55.75
2022-11-07T15:30:34.431Z,57.38
2022-11-07T15:33:00.892Z,57.04
2022-11-07T15:35:43.427Z,57.30
2022-11-07T15:38:21.073Z,58.34
2022-11-07T15:40:48.627Z,59.56
2022-11-07T15:43:15.281Z,59.71
2022-11-07T15:45:42.653Z,59.80
2022-11-07T15:48:19.594Z,60.58
2022-11-07T15:50:47.773Z,60.47
2022-11-07T15:53:23.197Z,60.29
2022-11-07T15:55:55.045Z,60.70
2022-11-07T15:58:24.138Z,60.83
2022-11-07T16:00:51.960Z,61.95
2022-11-07T16:03:20.889Z,63.33
2022-11-07T16:05:49.917Z,63.26
2022-11-07T16:08:19.033Z,65.15
2022-11-07T16:10:51.164Z,64.03
2022-11-07T16:13:17.596Z,62.48
2022-11-07T16:15:48.504Z,60.63
2022-11-07T16:18:17.577Z,62.14
2022-11-07T16:20:45.001Z,61.44
2022-11-07T16:23:11.477Z,60.93
2022-11-07T16:25:40.826Z,61.16
2022-11-07T16:28:34.816Z,63.30
2022-11-07T16:31:02.204Z,64.67
2022-11-07T16:33:29.057Z,65.85
2022-11-07T16:35:59.852Z,66.26
2022-11-07T16:38:31.336Z,67.59
2022-11-07T16:41:00.502Z,68.57
2022-11-07T16:43:26.885Z,67.20
2022-11-07T16:45:55.961Z,67.38
2022-11-07T16:48:26.607Z,69.34
2022-11-07T16:50:54.281Z,70.15
2022-11-07T16:53:21.717Z,70.15
2022-11-07T16:55:53.606Z,71.47
2022-11-07T16:58:30.332Z,70.78
2022-11-07T17:00:59.288Z,71.50
2022-11-07T17:03:26.475Z,71.46
2022-11-07T17:05:58.692Z,72.35
2022-11-07T17:08:29.571Z,70.62
2022-11-07T17:10:55.992Z,69.70
2022-11-07T17:13:23.125Z,68.73
2022-11-07T17:15:50.065Z,68.02
2022-11-07T17:18:22.025Z,68.58
2022-11-07T17:20:51.312Z,68.38
2022-11-07T17:23:18.644Z,67.78
2022-11-07T17:25:50.560Z,67.60
2022-11-07T17:28:17.581Z,67.46
2022-11-07T17:30:44.527Z,66.39
2022-11-07T17:33:10.944Z,67.24
2022-11-07T17:35:37.968Z,68.80
2022-11-07T17:38:05.444Z,70.85
2022-11-07T17:40:33.642Z,71.50
2022-11-07T17:43:00.473Z,72.04
2022-11-07T17:45:27.364Z,73.24
2022-11-07T17:47:53.820Z,74.24
2022-11-07T17:50:22.295Z,75.03
2022-11-07T17:52:48.759Z,75.69
2022-11-07T17:55:15.323Z,73.94
2022-11-07T17:57:43.376Z,74.01
2022-11-07T18:00:30.091Z,75.24
2022-11-07T18:02:56.654Z,77.13
2022-11-07T18:05:26.503Z,76.32
2022-11-07T18:07:56.663Z,75.57
2022-11-07T18:10:23.828Z,74.61
2022-11-07T18:12:50.288Z,73.39
2022-11-07T18:15:16.703Z,77.14
2022-11-07T18:17:43.124Z,74.85
2022-11-07T18:20:10.342Z,73.36
2022-11-07T18:22:37.260Z,73.85
2022-11-07T18:25:08.289Z,72.87
2022-11-07T18:27:35.494Z,73.31
2022-11-07T18:30:03.023Z,73.59
2022-11-07T18:32:35.546Z,75.21
2022-11-07T18:35:04.287Z,76.84
2022-11-07T18:37:30.677Z,76.87
2022-11-07T18:39:57.087Z,77.42
2022-11-07T18:42:23.486Z,77.79
2022-11-07T18:44:49.889Z,78.14
2022-11-07T18:47:16.295Z,78.89
2022-11-07T18:49:42.720Z,78.88
2022-11-07T18:52:09.113Z,79.25
2022-11-07T18:54:35.581Z,79.16
2022-11-07T18:57:02.023Z,79.41
2022-11-07T18:59:28.467Z,79.20
2022-11-07T19:01:55.007Z,79.46
2022-11-07T19:04:21.469Z,79.37
2022-11-07T19:06:57.167Z,80.24
2022-11-07T19:09:29.914Z,80.78
2022-11-07T19:11:58.017Z,81.31
2022-11-07T19:14:25.889Z,80.09
2022-11-07T19:16:52.856Z,79.59
2022-11-07T19:19:19.320Z,80.11
2022-11-07T19:21:45.774Z,86.15
2022-11-07T19:24:13.130Z,81.31
2022-11-07T19:26:39.795Z,79.74
2022-11-07T19:29:09.241Z,80.05
2022-11-07T19:31:36.924Z,80.33
2022-11-07T19:34:03.685Z,80.87
2022-11-07T19:36:30.916Z,81.07
2022-11-07T19:38:57.595Z,81.10
2022-11-07T19:41:24.142Z,84.68
2022-11-07T19:43:50.548Z,82.22
2022-11-07T19:46:22.485Z,82.14
2022-11-07T19:48:49.912Z,82.41
2022-11-07T19:51:22.124Z,81.72
2022-11-07T19:53:58.024Z,82.12
2022-11-07T19:56:26.521Z,84.09
2022-11-07T19:58:54.367Z,84.54
2022-11-07T20:01:26.680Z,84.31
2022-11-07T20:03:54.295Z,84.80
2022-11-07T20:06:27.439Z,85.32
2022-11-07T20:08:53.884Z,85.84
2022-11-07T20:11:22.183Z,86.47
2022-11-07T20:13:48.679Z,85.54
2022-11-07T20:16:15.687Z,85.43
2022-11-07T20:18:42.425Z,85.46
2022-11-07T20:21:13.172Z,86.25
2022-11-07T20:23:40.990Z,87.01
2022-11-07T20:26:14.138Z,86.56
2022-11-07T20:28:40.648Z,87.24
2022-11-07T20:31:09.053Z,87.43
2022-11-07T20:33:35.558Z,86.52
2022-11-07T20:36:05.987Z,87.37
2022-11-07T20:38:33.462Z,86.79
2022-11-07T20:41:01.353Z,87.48
2022-11-07T20:43:27.867Z,87.51
2022-11-07T20:45:54.311Z,87.66
2022-11-07T20:48:21.269Z,87.25
2022-11-07T20:50:48.521Z,88.10
2022-11-07T20:53:16.074Z,88.46
2022-11-07T20:55:43.382Z,88.17
2022-11-07T20:58:10.753Z,87.84
2022-11-07T21:00:39.136Z,88.16
2022-11-07T21:03:06.061Z,88.06
2022-11-07T21:05:32.491Z,88.64
2022-11-07T21:07:58.944Z,88.91
2022-11-07T21:10:25.370Z,89.25
2022-11-07T21:12:51.802Z,89.25
2022-11-07T21:15:18.236Z,89.91
2022-11-07T21:17:44.678Z,89.52
2022-11-07T21:20:11.370Z,89.35
2022-11-07T21:22:37.942Z,89.32
2022-11-07T21:25:08.045Z,89.67
2022-11-07T21:27:37.661Z,90.14
2022-11-07T21:30:06.129Z,90.55
2022-11-07T21:32:33.268Z,90.29
2022-11-07T21:34:59.727Z,89.38
2022-11-07T21:37:26.181Z,88.94
2022-11-07T21:39:52.616Z,89.39
2022-11-07T21:42:19.089Z,89.46
2022-11-07T21:44:45.590Z,90.42
2022-11-07T21:47:12.041Z,90.55
2022-11-07T21:49:39.545Z,90.78
2022-11-07T21:52:05.964Z,90.85
2022-11-07T21:54:32.356Z,90.96
2022-11-07T21:57:00.236Z,89.77
2022-11-07T21:59:26.896Z,91.31
2022-11-07T22:01:55.077Z,90.62
2022-11-07T22:04:21.602Z,90.83
2022-11-07T22:06:48.030Z,91.35
2022-11-07T22:09:16.962Z,91.57
2022-11-07T22:11:44.120Z,92.04
2022-11-07T22:14:14.694Z,92.31
2022-11-07T22:16:41.809Z,92.18
2022-11-07T22:19:12.248Z,92.14
2022-11-07T22:21:40.043Z,92.48
2022-11-07T22:24:06.799Z,92.49
2022-11-07T22:26:33.212Z,92.54
2022-11-07T22:28:59.663Z,92.28
2022-11-07T22:31:30.198Z,92.27
2022-11-07T22:33:58.466Z,92.87
2022-11-07T22:36:25.033Z,92.53
2022-11-07T22:38:51.676Z,92.39
2022-11-07T22:41:23.631Z,92.65
2022-11-07T22:43:50.546Z,92.45
2022-11-07T22:46:19.464Z,92.74
2022-11-07T22:48:47.168Z,92.92
2022-11-07T22:51:16.431Z,92.97
2022-11-07T22:53:42.865Z,92.61
2022-11-07T22:56:15.720Z,92.57
2022-11-07T22:58:42.565Z,92.62
2022-11-07T23:01:18.320Z,91.61
2022-11-07T23:03:45.539Z,91.92
2022-11-07T23:06:12.169Z,92.91
2022-11-07T23:08:39.137Z,92.77
2022-11-07T23:11:43.482Z,93.76
2022-11-07T23:14:00.427Z,93.56
2022-11-07T23:16:32.679Z,93.73
2022-11-07T23:19:01.080Z,92.85
2022-11-07T23:21:27.848Z,93.35
2022-11-07T23:23:55.678Z,93.00
2022-11-07T23:26:22.724Z,94.37
2022-11-07T23:28:49.922Z,94.55
2022-11-07T23:31:18.068Z,94.41
2022-11-07T23:33:44.951Z,93.84
2022-11-07T23:36:16.531Z,93.80
2022-11-07T23:38:44.008Z,92.97
2022-11-07T23:41:14.602Z,92.76
2022-11-07T23:43:42.786Z,92.66
2022-11-07T23:46:32.023Z,92.79
2022-11-07T23:49:17.291Z,93.01
2022-11-07T23:51:45.208Z,93.08
2022-11-07T23:54:29.950Z,93.16
2022-11-07T23:56:56.428Z,94.09
2022-11-07T23:59:41.676Z,93.42
